Time,TemperatureF,DewpointF,PressureIn,WindDirection,WindDirectionDegrees,WindSpeedMPH,WindSpeedGustMPH,Humidity,HourlyPrecipIn,Conditions,Clouds,dailyrainin,SoftwareType,DateUTC
2013-02-27 00:02:00,49.5,22.3,29.90,SSE,148,8.0,14.0,34,0.00,,,0.00,Wunderground v.1.15,2013-02-27 06:02:00,
2013-02-27 00:08:00,49.5,22.3,29.90,SSE,160,8.0,14.0,34,0.00,,,0.00,Wunderground v.1.15,2013-02-27 06:08:00,
2013-02-27 00:14:00,49.6,22.3,29.90,South,188,8.0,14.0,34,0.00,,,0.00,Wunderground v.1.15,2013-02-27 06:14:00,
2013-02-27 00:20:00,49.5,22.3,29.91,South,173,7.0,14.0,34,0.00,,,0.00,Wunderground v.1.15,2013-02-27 06:20:00,
2013-02-27 00:26:00,49.5,22.3,29.91,South,170,7.0,14.0,34,0.00,,,0.00,Wunderground v.1.15,2013-02-27 06:26:00,
2013-02-27 00:32:00,49.5,21.5,29.90,South,170,7.0,14.0,33,0.00,,,0.00,Wunderground v.1.15,2013-02-27 06:32:00,
2013-02-27 00:38:00,49.5,21.5,29.90,South,184,8.0,14.0,33,0.00,,,0.00,Wunderground v.1.15,2013-02-27 06:38:00,
2013-02-27 00:44:00,49.5,21.5,29.91,SE,129,8.0,14.0,33,0.00,,,0.00,Wunderground v.1.15,2013-02-27 06:44:00,
2013-02-27 00:50:00,49.7,21.7,29.91,South,181,8.0,14.0,33,0.00,,,0.00,Wunderground v.1.15,2013-02-27 06:50:00,
2013-02-27 00:56:00,49.5,21.5,29.91,SSE,147,7.0,14.0,33,0.00,,,0.00,Wunderground v.1.15,2013-02-27 06:56:00,
2013-02-27 01:02:00,50.3,21.5,29.92,South,170,9.0,14.0,32,0.00,,,0.00,Wunderground v.1.15,2013-02-27 07:02:00,
2013-02-27 01:08:00,50.4,21.6,29.92,South,173,11.0,15.0,32,0.00,,,0.00,Wunderground v.1.15,2013-02-27 07:08:00,
2013-02-27 01:14:00,50.0,22.0,29.91,SE,136,10.0,14.0,33,0.00,,,0.00,Wunderground v.1.15,2013-02-27 07:14:00,
2013-02-27 01:20:00,49.7,21.7,29.91,SSE,153,11.0,16.0,33,0.00,,,0.00,Wunderground v.1.15,2013-02-27 07:20:00,
2013-02-27 01:26:00,49.5,22.3,29.91,SSE,165,11.0,16.0,34,0.00,,,0.00,Wunderground v.1.15,2013-02-27 07:26:00,
2013-02-27 01:32:00,49.1,21.9,29.91,South,179,11.0,14.0,34,0.00,,,0.00,Wunderground v.1.15,2013-02-27 07:32:00,
2013-02-27 01:38:00,49.1,22.6,29.91,SSE,162,11.0,15.0,35,0.00,,,0.00,Wunderground v.1.15,2013-02-27 07:38:00,
2013-02-27 01:44:00,49.1,22.6,29.91,SSE,147,12.0,14.0,35,0.00,,,0.00,Wunderground v.1.15,2013-02-27 07:44:00,
2013-02-27 01:50:00,49.0,23.2,29.91,SSE,160,12.0,12.0,36,0.00,,,0.00,Wunderground v.1.15,2013-02-27 07:50:00,
2013-02-27 01:56:00,49.1,23.9,29.91,SE,127,12.0,14.0,37,0.00,,,0.00,Wunderground v.1.15,2013-02-27 07:56:00,
2013-02-27 02:02:00,49.0,23.8,29.91,South,190,13.0,16.0,37,0.00,,,0.00,Wunderground v.1.15,2013-02-27 08:02:00,
2013-02-27 02:08:00,48.9,24.4,29.92,SSE,162,12.0,16.0,38,0.00,,,0.00,Wunderground v.1.15,2013-02-27 08:08:00,
2013-02-27 02:14:00,48.7,24.2,29.91,South,188,11.0,14.0,38,0.00,,,0.00,Wunderground v.1.15,2013-02-27 08:14:00,
2013-02-27 02:20:00,48.8,24.3,29.91,SSE,160,12.0,17.0,38,0.00,,,0.00,Wunderground v.1.15,2013-02-27 08:20:00,
2013-02-27 02:26:00,49.0,24.5,29.91,South,173,12.0,17.0,38,0.00,,,0.00,Wunderground v.1.15,2013-02-27 08:26:00,
2013-02-27 02:32:00,49.1,24.6,29.92,SSE,151,11.0,17.0,38,0.00,,,0.00,Wunderground v.1.15,2013-02-27 08:32:00,
2013-02-27 02:38:00,49.0,25.1,29.92,SSE,158,10.0,17.0,39,0.00,,,0.00,Wunderground v.1.15,2013-02-27 08:38:00,
2013-02-27 02:44:00,49.1,25.2,29.91,SSE,166,10.0,15.0,39,0.00,,,0.00,Wunderground v.1.15,2013-02-27 08:44:00,
2013-02-27 02:50:00,49.3,25.4,29.91,SW,217,11.0,14.0,39,0.00,,,0.00,Wunderground v.1.15,2013-02-27 08:50:00,
2013-02-27 02:56:00,49.4,26.1,29.91,SSE,155,11.0,14.0,40,0.00,,,0.00,Wunderground v.1.15,2013-02-27 08:56:00,
2013-02-27 03:02:00,49.7,26.9,29.91,SSE,158,11.0,15.0,41,0.00,,,0.00,Wunderground v.1.15,2013-02-27 09:02:00,
2013-02-27 03:08:00,49.9,27.1,29.91,South,173,11.0,15.0,41,0.00,,,0.00,Wunderground v.1.15,2013-02-27 09:08:00,
2013-02-27 03:14:00,49.7,28.1,29.91,WSW,238,11.0,14.0,43,0.00,,,0.00,Wunderground v.1.15,2013-02-27 09:14:00,
2013-02-27 03:30:00,49.4,28.9,29.91,South,191,11.0,14.0,45,0.00,,,0.00,Wunderground v.1.15,2013-02-27 09:30:00,
2013-02-27 03:36:00,49.2,29.3,29.91,South,188,11.0,14.0,46,0.00,,,0.00,Wunderground v.1.15,2013-02-27 09:36:00,
2013-02-27 03:42:00,49.0,29.6,29.91,South,190,10.0,14.0,47,0.00,,,0.00,Wunderground v.1.15,2013-02-27 09:42:00,
2013-02-27 03:48:00,49.1,29.7,29.91,SSE,163,10.0,14.0,47,0.00,,,0.00,Wunderground v.1.15,2013-02-27 09:48:00,
2013-02-27 03:54:00,49.2,29.8,29.92,South,187,11.0,18.0,47,0.00,,,0.00,Wunderground v.1.15,2013-02-27 09:54:00,
2013-02-27 04:00:00,49.3,29.9,29.92,South,184,11.0,14.0,47,0.00,,,0.00,Wunderground v.1.15,2013-02-27 10:00:00,
2013-02-27 04:06:00,49.4,29.5,29.93,SSE,155,11.0,16.0,46,0.00,,,0.00,Wunderground v.1.15,2013-02-27 10:06:00,
2013-02-27 04:12:00,49.3,29.9,29.97,WNW,294,8.0,14.0,47,0.00,,,0.00,Wunderground v.1.15,2013-02-27 10:12:00,
2013-02-27 04:18:00,50.0,28.4,29.99,West,280,7.0,14.0,43,0.00,,,0.00,Wunderground v.1.15,2013-02-27 10:18:00,
2013-02-27 04:24:00,49.3,24.7,29.99,NNW,331,7.0,14.0,38,0.00,,,0.00,Wunderground v.1.15,2013-02-27 10:24:00,
2013-02-27 04:30:00,48.5,24.6,29.99,West,267,6.0,6.0,39,0.00,,,0.00,Wunderground v.1.15,2013-02-27 10:30:00,
2013-02-27 04:36:00,48.0,24.2,29.98,West,277,5.0,14.0,39,0.00,,,0.00,Wunderground v.1.15,2013-02-27 10:36:00,
2013-02-27 04:42:00,47.9,24.7,29.99,WSW,257,4.0,14.0,40,0.00,,,0.00,Wunderground v.1.15,2013-02-27 10:42:00,
2013-02-27 04:48:00,48.2,24.4,29.99,WSW,257,4.0,14.0,39,0.00,,,0.00,Wunderground v.1.15,2013-02-27 10:48:00,
2013-02-27 04:54:00,48.9,23.7,29.99,WSW,246,4.0,14.0,37,0.00,,,0.00,Wunderground v.1.15,2013-02-27 10:54:00,
2013-02-27 04:59:00,49.8,23.2,29.98,WSW,241,4.0,4.0,35,0.00,,,0.00,Wunderground v.1.15,2013-02-27 10:59:00,
2013-02-27 05:06:00,50.2,22.9,29.98,WSW,238,4.0,14.0,34,0.00,,,0.00,Wunderground v.1.15,2013-02-27 11:06:00,
2013-02-27 05:12:00,50.4,23.1,29.98,NW,316,3.0,14.0,34,0.00,,,0.00,Wunderground v.1.15,2013-02-27 11:12:00,
2013-02-27 05:18:00,50.9,22.1,29.99,West,263,3.0,14.0,32,0.00,,,0.00,Wunderground v.1.15,2013-02-27 11:18:00,
2013-02-27 05:24:00,51.4,21.7,29.99,West,260,3.0,14.0,31,0.00,,,0.00,Wunderground v.1.15,2013-02-27 11:24:00,
2013-02-27 05:30:00,51.8,22.1,29.99,West,281,4.0,14.0,31,0.00,,,0.00,Wunderground v.1.15,2013-02-27 11:30:00,
2013-02-27 05:36:00,51.7,21.2,29.99,WSW,253,4.0,14.0,30,0.00,,,0.00,Wunderground v.1.15,2013-02-27 11:36:00,
2013-02-27 05:42:00,51.8,21.3,30.00,NW,305,4.0,14.0,30,0.00,,,0.00,Wunderground v.1.15,2013-02-27 11:42:00,
2013-02-27 05:48:00,51.8,21.3,30.00,WNW,283,4.0,14.0,30,0.00,,,0.00,Wunderground v.1.15,2013-02-27 11:48:00,
2013-02-27 05:54:00,51.9,21.4,30.00,West,262,5.0,14.0,30,0.00,,,0.00,Wunderground v.1.15,2013-02-27 11:54:00,
2013-02-27 06:00:00,51.9,20.6,30.00,NW,322,5.0,5.0,29,0.00,,,0.00,Wunderground v.1.15,2013-02-27 12:00:00,
2013-02-27 06:06:00,51.8,21.3,30.00,WNW,298,4.0,5.0,30,0.00,,,0.00,Wunderground v.1.15,2013-02-27 12:06:00,
2013-02-27 06:12:00,51.6,21.1,30.00,West,274,4.0,5.0,30,0.00,,,0.00,Wunderground v.1.15,2013-02-27 12:12:00,
2013-02-27 06:18:00,51.4,21.0,30.01,WNW,283,5.0,6.0,30,0.00,,,0.00,Wunderground v.1.15,2013-02-27 12:18:00,
2013-02-27 06:24:00,51.3,21.6,30.01,West,274,5.0,8.0,31,0.00,,,0.00,Wunderground v.1.15,2013-02-27 12:24:00,
2013-02-27 06:30:00,51.0,21.4,30.01,WNW,283,5.0,5.0,31,0.00,,,0.00,Wunderground v.1.15,2013-02-27 12:30:00,
2013-02-27 06:36:00,50.7,21.1,30.01,WSW,242,6.0,6.0,31,0.00,,,0.00,Wunderground v.1.15,2013-02-27 12:36:00,
2013-02-27 06:42:00,50.4,20.9,30.01,NW,312,6.0,6.0,31,0.00,,,0.00,Wunderground v.1.15,2013-02-27 12:42:00,
2013-02-27 06:48:00,50.2,21.4,30.02,NNW,338,6.0,6.0,32,0.00,,,0.00,Wunderground v.1.15,2013-02-27 12:48:00,
2013-02-27 06:54:00,49.9,21.9,30.02,NNW,341,6.0,7.0,33,0.00,,,0.00,Wunderground v.1.15,2013-02-27 12:54:00,
2013-02-27 07:00:00,49.6,21.6,30.03,WNW,302,6.0,13.0,33,0.00,,,0.00,Wunderground v.1.15,2013-02-27 13:00:00,
2013-02-27 07:06:00,49.5,22.3,30.03,NNE,20,6.0,13.0,34,0.00,,,0.00,Wunderground v.1.15,2013-02-27 13:06:00,
2013-02-27 07:12:00,49.2,22.7,30.04,NNW,347,6.0,13.0,35,0.00,,,0.00,Wunderground v.1.15,2013-02-27 13:12:00,
2013-02-27 07:18:00,48.8,23.0,30.04,West,278,7.0,13.0,36,0.00,,,0.00,Wunderground v.1.15,2013-02-27 13:18:00,
2013-02-27 07:24:00,48.3,23.2,30.05,NNW,335,6.0,13.0,37,0.00,,,0.00,Wunderground v.1.15,2013-02-27 13:24:00,
2013-02-27 07:30:00,47.9,24.7,30.05,NW,321,7.0,13.0,40,0.00,,,0.00,Wunderground v.1.15,2013-02-27 13:30:00,
2013-02-27 07:36:00,47.6,26.7,30.07,North,3,10.0,13.0,44,0.00,,,0.00,Wunderground v.1.15,2013-02-27 13:36:00,
2013-02-27 07:42:00,47.1,27.4,30.08,NNW,332,9.0,14.0,46,0.00,,,0.00,Wunderground v.1.15,2013-02-27 13:42:00,
2013-02-27 07:48:00,46.7,28.0,30.08,North,352,9.0,14.0,48,0.00,,,0.00,Wunderground v.1.15,2013-02-27 13:48:00,
2013-02-27 07:54:00,46.1,28.5,30.08,North,356,10.0,13.0,50,0.00,,,0.00,Wunderground v.1.15,2013-02-27 13:54:00,
2013-02-27 08:00:00,45.5,28.9,30.08,NNW,347,10.0,13.0,52,0.00,,,0.00,Wunderground v.1.15,2013-02-27 14:00:00,
2013-02-27 08:06:00,44.8,28.7,30.09,NNE,22,11.0,20.0,53,0.00,,,0.00,Wunderground v.1.15,2013-02-27 14:06:00,
2013-02-27 08:12:00,44.1,29.4,30.10,NW,309,10.0,13.0,56,0.00,,,0.00,Wunderground v.1.15,2013-02-27 14:12:00,
2013-02-27 08:18:00,43.3,29.5,30.11,WNW,297,11.0,13.0,58,0.00,,,0.00,Wunderground v.1.15,2013-02-27 14:18:00,
2013-02-27 08:24:00,42.5,30.0,30.11,NNW,328,10.0,13.0,61,0.00,,,0.00,Wunderground v.1.15,2013-02-27 14:24:00,
2013-02-27 08:30:00,42.3,30.2,30.11,NW,323,11.0,13.0,62,0.00,,,0.00,Wunderground v.1.15,2013-02-27 14:30:00,
2013-02-27 08:36:00,42.4,30.7,30.12,NW,315,11.0,13.0,63,0.00,,,0.00,Wunderground v.1.15,2013-02-27 14:36:00,
2013-02-27 08:42:00,42.2,30.9,30.13,NW,317,10.0,15.0,64,0.00,,,0.00,Wunderground v.1.15,2013-02-27 14:42:00,
2013-02-27 08:48:00,42.7,31.4,30.13,NNW,346,10.0,15.0,64,0.00,,,0.00,Wunderground v.1.15,2013-02-27 14:48:00,
2013-02-27 08:54:00,43.3,31.5,30.14,NNW,335,10.0,17.0,63,0.00,,,0.00,Wunderground v.1.15,2013-02-27 14:54:00,
2013-02-27 09:00:00,43.9,31.7,30.14,NNW,345,10.0,17.0,62,0.00,,,0.00,Wunderground v.1.15,2013-02-27 15:00:00,
2013-02-27 09:06:00,44.3,31.7,30.14,NW,314,11.0,19.0,61,0.00,,,0.00,Wunderground v.1.15,2013-02-27 15:06:00,
2013-02-27 09:12:00,44.7,31.7,30.14,North,349,12.0,13.0,60,0.00,,,0.00,Wunderground v.1.15,2013-02-27 15:12:00,
2013-02-27 09:18:00,45.0,31.5,30.14,North,1,12.0,23.0,59,0.00,,,0.00,Wunderground v.1.15,2013-02-27 15:18:00,
2013-02-27 09:24:00,45.5,32.0,30.14,NW,309,12.0,13.0,59,0.00,,,0.00,Wunderground v.1.15,2013-02-27 15:24:00,
2013-02-27 09:30:00,45.8,31.9,30.15,North,354,11.0,14.0,58,0.00,,,0.00,Wunderground v.1.15,2013-02-27 15:30:00,
2013-02-27 09:36:00,46.0,32.0,30.15,NW,309,11.0,17.0,58,0.00,,,0.00,Wunderground v.1.15,2013-02-27 15:36:00,
2013-02-27 09:42:00,46.6,32.2,30.15,NW,324,11.0,15.0,57,0.00,,,0.00,Wunderground v.1.15,2013-02-27 15:42:00,
2013-02-27 09:48:00,46.6,32.2,30.15,North,359,14.0,19.0,57,0.00,,,0.00,Wunderground v.1.15,2013-02-27 15:48:00,
2013-02-27 09:54:00,46.9,32.4,30.15,NNW,342,14.0,16.0,57,0.00,,,0.00,Wunderground v.1.15,2013-02-27 15:54:00,
2013-02-27 10:00:00,47.7,32.8,30.15,NNE,19,13.0,19.0,56,0.00,,,0.00,Wunderground v.1.15,2013-02-27 16:00:00,
2013-02-27 10:06:00,47.7,32.8,30.15,NW,325,14.0,20.0,56,0.00,,,0.00,Wunderground v.1.15,2013-02-27 16:06:00,
2013-02-27 10:12:00,47.9,32.5,30.15,NNW,342,14.0,19.0,55,0.00,,,0.00,Wunderground v.1.15,2013-02-27 16:12:00,
2013-02-27 10:18:00,48.9,33.0,30.16,NNW,330,13.0,19.0,54,0.00,,,0.00,Wunderground v.1.15,2013-02-27 16:18:00,
2013-02-27 10:24:00,49.3,32.9,30.16,NNE,18,12.0,13.0,53,0.00,,,0.00,Wunderground v.1.15,2013-02-27 16:24:00,
2013-02-27 10:30:00,49.6,32.7,30.16,North,6,12.0,13.0,52,0.00,,,0.00,Wunderground v.1.15,2013-02-27 16:30:00,
2013-02-27 10:36:00,49.5,33.1,30.16,West,271,13.0,18.0,53,0.00,,,0.00,Wunderground v.1.15,2013-02-27 16:36:00,
2013-02-27 10:42:00,50.2,33.2,30.16,WNW,299,12.0,13.0,52,0.00,,,0.00,Wunderground v.1.15,2013-02-27 16:42:00,
2013-02-27 10:48:00,50.4,32.9,30.16,North,358,11.0,19.0,51,0.00,,,0.00,Wunderground v.1.15,2013-02-27 16:48:00,
2013-02-27 10:54:00,50.8,33.8,30.16,NNW,348,11.0,13.0,52,0.00,,,0.00,Wunderground v.1.15,2013-02-27 16:54:00,
2013-02-27 11:00:00,51.0,33.5,30.17,NNW,330,11.0,11.0,51,0.00,,,0.00,Wunderground v.1.15,2013-02-27 17:00:00,
2013-02-27 11:06:00,51.3,33.8,30.17,NNW,337,10.0,14.0,51,0.00,,,0.00,Wunderground v.1.15,2013-02-27 17:06:00,
2013-02-27 11:12:00,51.6,33.6,30.16,NW,309,11.0,14.0,50,0.00,,,0.00,Wunderground v.1.15,2013-02-27 17:12:00,
2013-02-27 11:18:00,52.2,33.6,30.16,NNW,333,11.0,14.0,49,0.00,,,0.00,Wunderground v.1.15,2013-02-27 17:18:00,
2013-02-27 11:24:00,52.9,33.7,30.16,North,6,9.0,13.0,48,0.00,,,0.00,Wunderground v.1.15,2013-02-27 17:24:00,
2013-02-27 11:30:00,52.8,33.6,30.17,WNW,291,10.0,10.0,48,0.00,,,0.00,Wunderground v.1.15,2013-02-27 17:30:00,
2013-02-27 11:36:00,53.0,33.8,30.16,NNW,336,10.0,13.0,48,0.00,,,0.00,Wunderground v.1.15,2013-02-27 17:36:00,
2013-02-27 11:42:00,53.3,33.6,30.17,NNE,23,10.0,18.0,47,0.00,,,0.00,Wunderground v.1.15,2013-02-27 17:42:00,
2013-02-27 11:48:00,52.7,33.5,30.17,North,353,12.0,18.0,48,0.00,,,0.00,Wunderground v.1.15,2013-02-27 17:48:00,
2013-02-27 11:54:00,53.0,32.8,30.17,North,8,11.0,14.0,46,0.00,,,0.00,Wunderground v.1.15,2013-02-27 17:54:00,
2013-02-27 12:00:00,52.9,32.7,30.17,NE,46,11.0,13.0,46,0.00,,,0.00,Wunderground v.1.15,2013-02-27 18:00:00,
2013-02-27 12:06:00,52.8,32.6,30.17,NNW,333,11.0,13.0,46,0.00,,,0.00,Wunderground v.1.15,2013-02-27 18:06:00,
2013-02-27 12:12:00,53.0,33.3,30.17,NNW,330,10.0,13.0,47,0.00,,,0.00,Wunderground v.1.15,2013-02-27 18:12:00,
2013-02-27 12:18:00,53.6,32.8,30.17,NNW,330,9.0,13.0,45,0.00,,,0.00,Wunderground v.1.15,2013-02-27 18:18:00,
2013-02-27 12:24:00,54.1,32.6,30.17,NNW,337,9.0,13.0,44,0.00,,,0.00,Wunderground v.1.15,2013-02-27 18:24:00,
2013-02-27 12:30:00,54.0,32.6,30.17,NNW,338,10.0,13.0,44,0.00,,,0.00,Wunderground v.1.15,2013-02-27 18:30:00,
2013-02-27 12:36:00,54.4,32.3,30.17,WNW,285,9.0,13.0,43,0.00,,,0.00,Wunderground v.1.15,2013-02-27 18:36:00,
2013-02-27 12:42:00,55.3,30.7,30.17,North,351,7.0,13.0,39,0.00,,,0.00,Wunderground v.1.15,2013-02-27 18:42:00,
2013-02-27 12:48:00,54.7,29.6,30.16,NNE,16,11.0,18.0,38,0.00,,,0.00,Wunderground v.1.15,2013-02-27 18:48:00,
2013-02-27 12:54:00,54.3,29.2,30.16,WNW,298,13.0,19.0,38,0.00,,,0.00,Wunderground v.1.15,2013-02-27 18:54:00,
2013-02-27 13:00:00,54.7,29.6,30.16,NW,316,11.0,11.0,38,0.00,,,0.00,Wunderground v.1.15,2013-02-27 19:00:00,
2013-02-27 13:06:00,55.4,27.5,30.16,WNW,297,9.0,13.0,34,0.00,,,0.00,Wunderground v.1.15,2013-02-27 19:06:00,
2013-02-27 13:12:00,55.8,27.1,30.16,WNW,286,8.0,13.0,33,0.00,,,0.00,Wunderground v.1.15,2013-02-27 19:12:00,
2013-02-27 13:18:00,56.1,28.1,30.16,North,1,9.0,13.0,34,0.00,,,0.00,Wunderground v.1.15,2013-02-27 19:18:00,
2013-02-27 13:24:00,56.1,27.4,30.16,NNE,33,10.0,13.0,33,0.00,,,0.00,Wunderground v.1.15,2013-02-27 19:24:00,
2013-02-27 13:30:00,56.2,27.4,30.15,North,352,11.0,11.0,33,0.00,,,0.00,Wunderground v.1.15,2013-02-27 19:30:00,
2013-02-27 13:36:00,56.5,27.0,30.15,NNE,33,10.0,13.0,32,0.00,,,0.00,Wunderground v.1.15,2013-02-27 19:36:00,
2013-02-27 13:42:00,57.2,27.6,30.15,WNW,298,8.0,14.0,32,0.00,,,0.00,Wunderground v.1.15,2013-02-27 19:42:00,
2013-02-27 13:48:00,57.5,27.8,30.15,NNW,348,8.0,14.0,32,0.00,,,0.00,Wunderground v.1.15,2013-02-27 19:48:00,
2013-02-27 13:54:00,57.0,27.4,30.15,WNW,294,8.0,13.0,32,0.00,,,0.00,Wunderground v.1.15,2013-02-27 19:54:00,
2013-02-27 14:00:00,57.5,27.1,30.15,NNE,13,8.0,13.0,31,0.00,,,0.00,Wunderground v.1.15,2013-02-27 20:00:00,
2013-02-27 14:06:00,57.0,26.6,30.14,NW,316,9.0,13.0,31,0.00,,,0.00,Wunderground v.1.15,2013-02-27 20:06:00,
2013-02-27 14:12:00,57.4,27.0,30.15,North,360,9.0,13.0,31,0.00,,,0.00,Wunderground v.1.15,2013-02-27 20:12:00,
2013-02-27 14:18:00,57.0,26.6,30.15,NNE,15,9.0,13.0,31,0.00,,,0.00,Wunderground v.1.15,2013-02-27 20:18:00,
2013-02-27 14:24:00,57.1,26.7,30.15,NNW,339,9.0,13.0,31,0.00,,,0.00,Wunderground v.1.15,2013-02-27 20:24:00,
2013-02-27 14:30:00,57.8,27.3,30.15,NW,325,8.0,8.0,31,0.00,,,0.00,Wunderground v.1.15,2013-02-27 20:30:00,
2013-02-27 14:36:00,58.0,26.7,30.15,NNW,335,8.0,13.0,30,0.00,,,0.00,Wunderground v.1.15,2013-02-27 20:36:00,
2013-02-27 14:42:00,57.3,26.9,30.15,NNW,328,8.0,13.0,31,0.00,,,0.00,Wunderground v.1.15,2013-02-27 20:42:00,
2013-02-27 14:48:00,57.8,26.5,30.14,NNW,346,8.0,13.0,30,0.00,,,0.00,Wunderground v.1.15,2013-02-27 20:48:00,
2013-02-27 14:54:00,57.7,26.4,30.14,WNW,302,10.0,13.0,30,0.00,,,0.00,Wunderground v.1.15,2013-02-27 20:54:00,
2013-02-27 15:00:00,57.5,26.3,30.14,NW,312,9.0,9.0,30,0.00,,,0.00,Wunderground v.1.15,2013-02-27 21:00:00,
2013-02-27 15:06:00,57.9,25.0,30.15,North,354,9.0,13.0,28,0.00,,,0.00,Wunderground v.1.15,2013-02-27 21:06:00,
2013-02-27 15:12:00,57.9,25.8,30.14,NW,307,8.0,9.0,29,0.00,,,0.00,Wunderground v.1.15,2013-02-27 21:12:00,
2013-02-27 15:18:00,58.1,25.1,30.14,NNW,338,9.0,13.0,28,0.00,,,0.00,Wunderground v.1.15,2013-02-27 21:18:00,
2013-02-27 15:24:00,58.0,25.0,30.14,North,357,11.0,17.0,28,0.00,,,0.00,Wunderground v.1.15,2013-02-27 21:24:00,
2013-02-27 15:30:00,57.6,25.5,30.14,WNW,290,11.0,11.0,29,0.00,,,0.00,Wunderground v.1.15,2013-02-27 21:30:00,
2013-02-27 15:36:00,58.2,25.2,30.14,NW,316,8.0,13.0,28,0.00,,,0.00,Wunderground v.1.15,2013-02-27 21:36:00,
2013-02-27 15:42:00,57.8,26.5,30.14,NNW,340,8.0,13.0,30,0.00,,,0.00,Wunderground v.1.15,2013-02-27 21:42:00,
2013-02-27 15:48:00,57.3,25.3,30.14,North,11,7.0,13.0,29,0.00,,,0.00,Wunderground v.1.15,2013-02-27 21:48:00,
2013-02-27 15:54:00,57.2,26.0,30.13,NW,312,9.0,18.0,30,0.00,,,0.00,Wunderground v.1.15,2013-02-27 21:54:00,
2013-02-27 16:00:00,57.2,26.8,30.13,NNE,12,9.0,18.0,31,0.00,,,0.00,Wunderground v.1.15,2013-02-27 22:00:00,
2013-02-27 16:06:00,56.9,27.3,30.13,WNW,293,8.0,18.0,32,0.00,,,0.00,Wunderground v.1.15,2013-02-27 22:06:00,
2013-02-27 16:12:00,57.4,27.7,30.14,NW,315,6.0,13.0,32,0.00,,,0.00,Wunderground v.1.15,2013-02-27 22:12:00,
2013-02-27 16:18:00,57.8,28.1,30.14,NNW,345,7.0,13.0,32,0.00,,,0.00,Wunderground v.1.15,2013-02-27 22:18:00,
2013-02-27 16:24:00,57.6,27.9,30.14,NNW,345,9.0,11.0,32,0.00,,,0.00,Wunderground v.1.15,2013-02-27 22:24:00,
2013-02-27 16:30:00,57.5,28.6,30.15,NW,314,9.0,9.0,33,0.00,,,0.00,Wunderground v.1.15,2013-02-27 22:30:00,
2013-02-27 16:36:00,57.7,28.8,30.14,NW,311,8.0,13.0,33,0.00,,,0.00,Wunderground v.1.15,2013-02-27 22:36:00,
2013-02-27 16:42:00,57.8,28.9,30.15,NNW,334,7.0,13.0,33,0.00,,,0.00,Wunderground v.1.15,2013-02-27 22:42:00,
2013-02-27 16:48:00,57.6,28.7,30.14,NNW,327,7.0,13.0,33,0.00,,,0.00,Wunderground v.1.15,2013-02-27 22:48:00,
2013-02-27 16:54:00,57.7,29.5,30.14,NNE,13,7.0,13.0,34,0.00,,,0.00,Wunderground v.1.15,2013-02-27 22:54:00,
2013-02-27 17:00:00,57.6,28.7,30.14,NNW,338,7.0,15.0,33,0.00,,,0.00,Wunderground v.1.15,2013-02-27 23:00:00,
2013-02-27 17:06:00,57.3,28.4,30.14,NW,316,10.0,15.0,33,0.00,,,0.00,Wunderground v.1.15,2013-02-27 23:06:00,
2013-02-27 17:12:00,57.0,28.1,30.15,NNW,348,10.0,12.0,33,0.00,,,0.00,Wunderground v.1.15,2013-02-27 23:12:00,
2013-02-27 17:18:00,56.5,27.7,30.14,NNW,338,9.0,13.0,33,0.00,,,0.00,Wunderground v.1.15,2013-02-27 23:18:00,
2013-02-27 17:24:00,56.2,28.9,30.14,WNW,292,8.0,13.0,35,0.00,,,0.00,Wunderground v.1.15,2013-02-27 23:24:00,
2013-02-27 17:30:00,56.2,28.9,30.15,North,360,8.0,13.0,35,0.00,,,0.00,Wunderground v.1.15,2013-02-27 23:30:00,
2013-02-27 17:36:00,55.9,28.6,30.15,North,5,8.0,13.0,35,0.00,,,0.00,Wunderground v.1.15,2013-02-27 23:36:00,
2013-02-27 17:42:00,55.5,28.3,30.15,NW,318,9.0,13.0,35,0.00,,,0.00,Wunderground v.1.15,2013-02-27 23:42:00,
2013-02-27 17:48:00,55.2,28.7,30.16,North,357,9.0,13.0,36,0.00,,,0.00,Wunderground v.1.15,2013-02-27 23:48:00,
2013-02-27 17:54:00,54.8,28.3,30.16,WNW,297,8.0,13.0,36,0.00,,,0.00,Wunderground v.1.15,2013-02-27 23:54:00,
2013-02-27 18:00:00,54.5,28.1,30.16,North,358,7.0,7.0,36,0.00,,,0.00,Wunderground v.1.15,2013-02-28 00:00:00,
2013-02-27 18:06:00,53.9,27.5,30.16,North,1,7.0,13.0,36,0.00,,,0.00,Wunderground v.1.15,2013-02-28 00:06:00,
2013-02-27 18:12:00,53.4,27.8,30.17,NW,320,7.0,13.0,37,0.00,,,0.00,Wunderground v.1.15,2013-02-28 00:12:00,
2013-02-27 18:18:00,52.8,27.9,30.17,North,1,6.0,13.0,38,0.00,,,0.00,Wunderground v.1.15,2013-02-28 00:18:00,
2013-02-27 18:24:00,52.2,27.3,30.18,North,5,5.0,13.0,38,0.00,,,0.00,Wunderground v.1.15,2013-02-28 00:24:00,
2013-02-27 18:30:00,51.8,27.0,30.18,NNW,329,5.0,5.0,38,0.00,,,0.00,Wunderground v.1.15,2013-02-28 00:30:00,
2013-02-27 18:36:00,51.3,26.5,30.18,NW,314,5.0,13.0,38,0.00,,,0.00,Wunderground v.1.15,2013-02-28 00:36:00,
2013-02-27 18:42:00,51.0,26.3,30.18,North,356,5.0,6.0,38,0.00,,,0.00,Wunderground v.1.15,2013-02-28 00:42:00,
2013-02-27 18:48:00,50.6,25.9,30.18,NNW,336,5.0,13.0,38,0.00,,,0.00,Wunderground v.1.15,2013-02-28 00:48:00,
2013-02-27 18:54:00,50.2,26.2,30.19,NNW,339,4.0,13.0,39,0.00,,,0.00,Wunderground v.1.15,2013-02-28 00:54:00,
2013-02-27 19:00:00,49.8,25.8,30.19,NNW,341,3.0,3.0,39,0.00,,,0.00,Wunderground v.1.15,2013-02-28 01:00:00,
2013-02-27 19:06:00,49.4,26.1,30.19,NNW,335,3.0,13.0,40,0.00,,,0.00,Wunderground v.1.15,2013-02-28 01:06:00,
2013-02-27 19:12:00,49.1,25.8,30.20,NNW,345,3.0,13.0,40,0.00,,,0.00,Wunderground v.1.15,2013-02-28 01:12:00,
2013-02-27 19:18:00,49.0,25.7,30.19,NNW,335,4.0,13.0,40,0.00,,,0.00,Wunderground v.1.15,2013-02-28 01:18:00,
2013-02-27 19:24:00,48.9,25.6,30.20,North,1,4.0,13.0,40,0.00,,,0.00,Wunderground v.1.15,2013-02-28 01:24:00,
2013-02-27 19:30:00,48.9,25.0,30.19,NNW,348,4.0,4.0,39,0.00,,,0.00,Wunderground v.1.15,2013-02-28 01:30:00,
2013-02-27 19:36:00,48.7,24.8,30.20,NNW,341,4.0,13.0,39,0.00,,,0.00,Wunderground v.1.15,2013-02-28 01:36:00,
2013-02-27 19:42:00,48.3,24.5,30.20,NNW,337,3.0,13.0,39,0.00,,,0.00,Wunderground v.1.15,2013-02-28 01:42:00,
2013-02-27 19:48:00,48.0,24.2,30.20,North,1,3.0,13.0,39,0.00,,,0.00,Wunderground v.1.15,2013-02-28 01:48:00,
2013-02-27 19:54:00,47.9,23.5,30.20,NNW,345,4.0,13.0,38,0.00,,,0.00,Wunderground v.1.15,2013-02-28 01:54:00,
2013-02-27 20:00:00,47.6,23.2,30.20,NNW,331,4.0,13.0,38,0.00,,,0.00,Wunderground v.1.15,2013-02-28 02:00:00,
2013-02-27 20:06:00,47.5,23.1,30.21,NNW,339,3.0,13.0,38,0.00,,,0.00,Wunderground v.1.15,2013-02-28 02:06:00,
2013-02-27 20:12:00,47.4,22.4,30.21,NNW,339,3.0,13.0,37,0.00,,,0.00,Wunderground v.1.15,2013-02-28 02:12:00,
2013-02-27 20:18:00,47.1,22.1,30.21,NNW,327,4.0,13.0,37,0.00,,,0.00,Wunderground v.1.15,2013-02-28 02:18:00,
2013-02-27 20:24:00,46.7,21.8,30.22,North,6,4.0,13.0,37,0.00,,,0.00,Wunderground v.1.15,2013-02-28 02:24:00,
2013-02-27 20:30:00,46.7,21.8,30.22,WNW,283,4.0,4.0,37,0.00,,,0.00,Wunderground v.1.15,2013-02-28 02:30:00,
2013-02-27 20:36:00,47.0,21.4,30.22,NNW,342,4.0,13.0,36,0.00,,,0.00,Wunderground v.1.15,2013-02-28 02:36:00,
2013-02-27 20:42:00,47.1,20.8,30.23,NNW,335,4.0,13.0,35,0.00,,,0.00,Wunderground v.1.15,2013-02-28 02:42:00,
2013-02-27 20:48:00,46.9,20.6,30.22,NNW,345,4.0,13.0,35,0.00,,,0.00,Wunderground v.1.15,2013-02-28 02:48:00,
2013-02-27 20:54:00,46.3,20.8,30.23,NNE,25,4.0,13.0,36,0.00,,,0.00,Wunderground v.1.15,2013-02-28 02:54:00,
2013-02-27 21:00:00,45.5,20.7,30.23,North,359,3.0,13.0,37,0.00,,,0.00,Wunderground v.1.15,2013-02-28 03:00:00,
2013-02-27 21:06:00,45.0,20.9,30.23,NNW,343,3.0,13.0,38,0.00,,,0.00,Wunderground v.1.15,2013-02-28 03:06:00,
2013-02-27 21:12:00,44.7,20.6,30.23,NNE,12,4.0,6.0,38,0.00,,,0.00,Wunderground v.1.15,2013-02-28 03:12:00,
2013-02-27 21:18:00,44.6,20.5,30.23,North,11,4.0,13.0,38,0.00,,,0.00,Wunderground v.1.15,2013-02-28 03:18:00,
2013-02-27 21:24:00,44.3,20.9,30.24,NNW,339,3.0,13.0,39,0.00,,,0.00,Wunderground v.1.15,2013-02-28 03:24:00,
2013-02-27 21:30:00,43.7,20.9,30.24,North,11,2.0,13.0,40,0.00,,,0.00,Wunderground v.1.15,2013-02-28 03:30:00,
2013-02-27 21:36:00,43.1,20.4,30.24,North,360,3.0,13.0,40,0.00,,,0.00,Wunderground v.1.15,2013-02-28 03:36:00,
2013-02-27 21:42:00,42.7,20.6,30.24,North,9,2.0,13.0,41,0.00,,,0.00,Wunderground v.1.15,2013-02-28 03:42:00,
2013-02-27 21:48:00,42.2,20.7,30.24,North,4,2.0,13.0,42,0.00,,,0.00,Wunderground v.1.15,2013-02-28 03:48:00,
2013-02-27 21:54:00,42.0,20.5,30.25,NNW,347,3.0,13.0,42,0.00,,,0.00,Wunderground v.1.15,2013-02-28 03:54:00,
2013-02-27 22:00:00,41.6,20.2,30.24,North,11,3.0,3.0,42,0.00,,,0.00,Wunderground v.1.15,2013-02-28 04:00:00,
2013-02-27 22:06:00,41.6,20.2,30.24,North,353,3.0,13.0,42,0.00,,,0.00,Wunderground v.1.15,2013-02-28 04:06:00,
2013-02-27 22:12:00,41.4,20.0,30.24,NNW,347,3.0,13.0,42,0.00,,,0.00,Wunderground v.1.15,2013-02-28 04:12:00,
2013-02-27 22:18:00,40.9,20.1,30.24,North,358,4.0,13.0,43,0.00,,,0.00,Wunderground v.1.15,2013-02-28 04:18:00,
2013-02-27 22:24:00,40.6,20.4,30.25,NNW,339,4.0,13.0,44,0.00,,,0.00,Wunderground v.1.15,2013-02-28 04:24:00,
2013-02-27 22:30:00,40.6,20.4,30.25,North,358,3.0,13.0,44,0.00,,,0.00,Wunderground v.1.15,2013-02-28 04:30:00,
2013-02-27 22:36:00,40.5,20.3,30.25,North,1,2.0,13.0,44,0.00,,,0.00,Wunderground v.1.15,2013-02-28 04:36:00,
2013-02-27 22:42:00,40.3,20.1,30.25,NNE,16,2.0,13.0,44,0.00,,,0.00,Wunderground v.1.15,2013-02-28 04:42:00,
2013-02-27 22:48:00,39.9,19.7,30.25,NNE,16,1.0,13.0,44,0.00,,,0.00,Wunderground v.1.15,2013-02-28 04:48:00,
2013-02-27 22:54:00,39.6,20.0,30.25,NNE,19,2.0,13.0,45,0.00,,,0.00,Wunderground v.1.15,2013-02-28 04:54:00,
2013-02-27 23:00:00,39.4,19.8,30.26,NNE,16,3.0,3.0,45,0.00,,,0.00,Wunderground v.1.15,2013-02-28 05:00:00,
2013-02-27 23:02:00,39.2,19.6,30.26,North,356,3.0,13.0,45,0.00,,,0.00,Wunderground v.1.15,2013-02-28 05:02:00,
2013-02-27 23:06:00,39.0,19.9,30.26,NNE,19,2.0,13.0,46,0.00,,,0.00,Wunderground v.1.15,2013-02-28 05:06:00,
2013-02-27 23:12:00,38.8,19.8,30.26,North,4,2.0,13.0,46,0.00,,,0.00,Wunderground v.1.15,2013-02-28 05:12:00,
2013-02-27 23:18:00,38.7,19.7,30.26,North,360,1.0,13.0,46,0.00,,,0.00,Wunderground v.1.15,2013-02-28 05:18:00,
2013-02-27 23:24:00,38.8,19.8,30.26,NNW,341,1.0,13.0,46,0.00,,,0.00,Wunderground v.1.15,2013-02-28 05:24:00,
2013-02-27 23:30:00,38.7,19.7,30.26,NNW,346,3.0,13.0,46,0.00,,,0.00,Wunderground v.1.15,2013-02-28 05:30:00,
2013-02-27 23:36:00,38.6,19.6,30.26,North,8,2.0,13.0,46,0.00,,,0.00,Wunderground v.1.15,2013-02-28 05:36:00,
2013-02-27 23:42:00,38.7,19.7,30.27,NNE,15,2.0,13.0,46,0.00,,,0.00,Wunderground v.1.15,2013-02-28 05:42:00,
2013-02-27 23:48:00,38.7,19.7,30.27,North,352,1.0,13.0,46,0.00,,,0.00,Wunderground v.1.15,2013-02-28 05:48:00,
2013-02-27 23:54:00,38.5,19.5,30.27,NNE,15,1.0,13.0,46,0.00,,,0.00,Wunderground v.1.15,2013-02-28 05:54:00,